sensor_id;sensor_type;location;lat;lon;timestamp;P1;durP1;ratioP1;P2;durP2;ratioP2
22849;SDS011;11591;44.792;10.358;2023-06-01T04:30:37;11.48;;;7.07;;
22849;SDS011;11591;44.792;10.358;2023-06-01T04:33:03;18.92;;;8.02;;
22849;SDS011;11591;44.792;10.358;2023-06-01T04:35:32;14.13;;;7.72;;
22849;SDS011;11591;44.792;10.358;2023-06-01T04:37:58;12.30;;;7.57;;
22849;SDS011;11591;44.792;10.358;2023-06-01T04:40:24;11.52;;;6.82;;
22849;SDS011;11591;44.792;10.358;2023-06-01T04:42:51;15.95;;;7.15;;
22849;SDS011;11591;44.792;10.358;2023-06-01T04:45:21;16.55;;;7.32;;
22849;SDS011;11591;44.792;10.358;2023-06-01T04:47:49;12.88;;;6.97;;
22849;SDS011;11591;44.792;10.358;2023-06-01T04:50:21;21.58;;;7.10;;
22849;SDS011;11591;44.792;10.358;2023-06-01T04:52:47;13.65;;;6.53;;
22849;SDS011;11591;44.792;10.358;2023-06-01T04:55:14;13.18;;;7.18;;
22849;SDS011;11591;44.792;10.358;2023-06-01T04:57:42;12.43;;;7.07;;
22849;SDS011;11591;44.792;10.358;2023-06-01T05:00:09;13.30;;;7.07;;
22849;SDS011;11591;44.792;10.358;2023-06-01T05:02:37;11.35;;;6.50;;
22849;SDS011;11591;44.792;10.358;2023-06-01T05:05:11;11.10;;;6.80;;
22849;SDS011;11591;44.792;10.358;2023-06-01T05:07:39;11.32;;;6.32;;
22849;SDS011;11591;44.792;10.358;2023-06-01T05:10:07;15.18;;;7.38;;
22849;SDS011;11591;44.792;10.358;2023-06-01T05:12:46;15.02;;;6.40;;
22849;SDS011;11591;44.792;10.358;2023-06-01T05:15:14;15.75;;;6.95;;
22849;SDS011;11591;44.792;10.358;2023-06-01T05:17:42;13.00;;;7.43;;
22849;SDS011;11591;44.792;10.358;2023-06-01T05:20:13;13.07;;;6.38;;
22849;SDS011;11591;44.792;10.358;2023-06-01T05:22:42;13.32;;;6.78;;
22849;SDS011;11591;44.792;10.358;2023-06-01T05:25:08;17.88;;;7.80;;
22849;SDS011;11591;44.792;10.358;2023-06-01T05:27:34;18.25;;;8.35;;
22849;SDS011;11591;44.792;10.358;2023-06-01T05:30:01;13.82;;;7.28;;
22849;SDS011;11591;44.792;10.358;2023-06-01T05:32:28;15.93;;;6.93;;
22849;SDS011;11591;44.792;10.358;2023-06-01T05:35:00;11.55;;;6.47;;
22849;SDS011;11591;44.792;10.358;2023-06-01T05:37:26;13.70;;;7.07;;
22849;SDS011;11591;44.792;10.358;2023-06-01T05:39:52;14.93;;;7.32;;
22849;SDS011;11591;44.792;10.358;2023-06-01T05:42:18;17.80;;;7.88;;
22849;SDS011;11591;44.792;10.358;2023-06-01T05:44:44;13.60;;;7.57;;
22849;SDS011;11591;44.792;10.358;2023-06-01T05:47:10;12.13;;;7.07;;
22849;SDS011;11591;44.792;10.358;2023-06-01T05:49:36;19.45;;;8.13;;
22849;SDS011;11591;44.792;10.358;2023-06-01T05:52:03;13.75;;;8.25;;
22849;SDS011;11591;44.792;10.358;2023-06-01T05:54:29;14.88;;;8.75;;
22849;SDS011;11591;44.792;10.358;2023-06-01T05:56:55;16.92;;;7.78;;
22849;SDS011;11591;44.792;10.358;2023-06-01T05:59:22;14.70;;;7.93;;
22849;SDS011;11591;44.792;10.358;2023-06-01T06:01:49;14.38;;;8.63;;
22849;SDS011;11591;44.792;10.358;2023-06-01T06:04:14;20.13;;;10.07;;
22849;SDS011;11591;44.792;10.358;2023-06-01T06:06:41;24.98;;;11.00;;
